createdAt,value
2023-02-09T00:00:48.459Z,64.80
2023-02-09T00:03:51.825Z,64.00
2023-02-09T00:06:55.214Z,65.00
2023-02-09T00:09:58.622Z,64.60
2023-02-09T00:13:19.488Z,67.50
2023-02-09T00:16:27.166Z,63.20
2023-02-09T00:19:32.974Z,67.00
2023-02-09T00:22:36.534Z,69.60
2023-02-09T00:25:40.697Z,65.25
2023-02-09T00:28:44.056Z,63.40
2023-02-09T00:31:50.867Z,64.60
2023-02-09T00:34:54.198Z,66.00
2023-02-09T00:37:57.490Z,64.50
2023-02-09T00:41:00.789Z,68.20
2023-02-09T00:44:04.080Z,66.20
2023-02-09T00:47:10.283Z,64.80
2023-02-09T00:50:13.602Z,61.40
2023-02-09T00:53:16.970Z,66.80
2023-02-09T00:56:20.338Z,62.60
2023-02-09T00:59:23.628Z,65.00
2023-02-09T01:02:28.540Z,63.20
2023-02-09T01:05:31.868Z,59.75
2023-02-09T01:08:35.201Z,57.80
2023-02-09T01:11:38.604Z,53.00
2023-02-09T01:14:43.007Z,57.25
2023-02-09T01:17:47.796Z,57.00
2023-02-09T01:20:51.098Z,59.00
2023-02-09T01:23:54.342Z,56.00
2023-02-09T01:26:57.783Z,61.00
2023-02-09T01:30:01.327Z,60.20
2023-02-09T01:33:06.774Z,63.00
2023-02-09T01:36:11.522Z,61.00
2023-02-09T01:39:15.114Z,64.50
2023-02-09T01:42:20.271Z,58.00
2023-02-09T01:45:30.374Z,65.00
2023-02-09T01:48:35.050Z,65.60
2023-02-09T01:51:44.728Z,67.60
2023-02-09T01:54:52.578Z,68.00
2023-02-09T01:57:58.861Z,69.60
2023-02-09T02:01:02.563Z,63.25
2023-02-09T02:04:07.912Z,68.67
2023-02-09T02:07:17.639Z,61.80
2023-02-09T02:10:20.890Z,63.75
2023-02-09T02:13:24.591Z,71.00
2023-02-09T02:16:42.973Z,69.00
2023-02-09T02:20:31.972Z,64.60
2023-02-09T02:23:48.393Z,73.80
2023-02-09T02:26:56.783Z,69.00
2023-02-09T02:30:39.417Z,69.00
2023-02-09T02:33:52.396Z,67.00
2023-02-09T02:37:06.989Z,67.40
2023-02-09T02:40:22.812Z,69.50
2023-02-09T02:43:41.420Z,71.80
2023-02-09T02:46:48.053Z,67.75
2023-02-09T02:49:58.018Z,71.60
2023-02-09T02:53:05.621Z,69.25
2023-02-09T02:56:13.779Z,67.20
2023-02-09T02:59:20.886Z,69.40
2023-02-09T03:02:28.302Z,65.40
2023-02-09T03:05:34.406Z,71.00
2023-02-09T03:08:49.104Z,64.50
2023-02-09T03:11:59.015Z,67.80
2023-02-09T03:15:20.188Z,71.60
2023-02-09T03:18:32.181Z,72.67
2023-02-09T03:21:47.646Z,71.75
2023-02-09T03:24:59.720Z,71.25
2023-02-09T03:28:07.630Z,65.00
2023-02-09T03:31:12.032Z,63.50
2023-02-09T03:34:16.255Z,65.00
2023-02-09T03:37:20.949Z,66.60
2023-02-09T03:40:24.381Z,71.00
2023-02-09T03:43:47.843Z,65.00
2023-02-09T03:46:51.192Z,63.25
2023-02-09T03:49:54.516Z,66.60
2023-02-09T03:52:59.446Z,67.40
2023-02-09T03:56:02.632Z,63.00
2023-02-09T03:59:06.035Z,63.00
2023-02-09T04:02:10.919Z,60.50
2023-02-09T04:05:14.485Z,59.40
2023-02-09T04:08:19.376Z,56.20
2023-02-09T04:11:23.602Z,55.25
2023-02-09T04:14:27.101Z,50.80
2023-02-09T04:17:30.506Z,53.00
2023-02-09T04:20:33.790Z,48.80
2023-02-09T04:23:38.471Z,47.75
2023-02-09T04:26:41.781Z,51.00
2023-02-09T04:29:45.108Z,48.20
2023-02-09T04:32:48.409Z,50.60
2023-02-09T04:35:52.289Z,52.00
2023-02-09T04:38:57.616Z,53.00
2023-02-09T04:42:00.872Z,52.25
2023-02-09T04:45:04.283Z,56.25
2023-02-09T04:48:07.876Z,53.40
2023-02-09T04:51:11.364Z,57.00
2023-02-09T04:54:15.964Z,57.60
2023-02-09T04:57:36.627Z,58.00
2023-02-09T05:00:39.825Z,55.75
2023-02-09T05:03:43.688Z,54.20
2023-02-09T05:06:47.018Z,52.20
2023-02-09T05:09:51.765Z,51.20
2023-02-09T05:12:55.172Z,52.40
2023-02-09T05:15:58.439Z,51.75
2023-02-09T05:19:01.666Z,55.00
2023-02-09T05:22:04.962Z,53.40
2023-02-09T05:25:09.894Z,52.80
2023-02-09T05:28:13.471Z,51.40
2023-02-09T05:31:16.886Z,52.80
2023-02-09T05:34:20.273Z,53.00
2023-02-09T05:37:23.612Z,51.00
2023-02-09T05:40:28.250Z,50.00
2023-02-09T05:43:31.909Z,50.80
2023-02-09T05:46:35.143Z,51.25
2023-02-09T05:49:38.809Z,51.00
2023-02-09T05:52:42.018Z,51.20
2023-02-09T05:55:47.483Z,51.00
2023-02-09T05:58:50.774Z,49.80
2023-02-09T06:01:54.282Z,51.00
2023-02-09T06:04:57.576Z,51.75
2023-02-09T06:08:00.933Z,50.60
2023-02-09T06:11:06.245Z,49.00
2023-02-09T06:14:09.722Z,48.60
2023-02-09T06:17:13.026Z,52.40
2023-02-09T06:20:16.379Z,51.40
2023-02-09T06:23:19.630Z,51.00
2023-02-09T06:26:25.121Z,52.00
2023-02-09T06:29:28.469Z,50.00
2023-02-09T06:32:31.775Z,51.00
2023-02-09T06:35:35.005Z,47.60
2023-02-09T06:38:39.084Z,49.00
2023-02-09T06:41:43.717Z,53.00
2023-02-09T06:44:47.206Z,51.40
2023-02-09T06:47:50.511Z,50.80
2023-02-09T06:50:53.817Z,50.25
2023-02-09T06:53:57.479Z,51.00
2023-02-09T06:57:02.345Z,49.20
2023-02-09T07:00:08.221Z,53.00
2023-02-09T07:03:11.558Z,53.00
2023-02-09T07:06:16.509Z,59.75
2023-02-09T07:09:19.797Z,52.75
2023-02-09T07:12:24.455Z,57.00
2023-02-09T07:15:27.993Z,57.60
2023-02-09T07:18:31.630Z,57.00
2023-02-09T07:21:35.813Z,57.00
2023-02-09T07:24:39.648Z,55.00
2023-02-09T07:27:46.745Z,58.67
2023-02-09T07:30:53.151Z,57.80
2023-02-09T07:33:56.757Z,54.60
2023-02-09T07:37:00.148Z,50.00
2023-02-09T07:40:03.614Z,49.80
2023-02-09T07:43:08.416Z,49.80
2023-02-09T07:46:15.071Z,51.00
2023-02-09T07:49:19.346Z,51.00
2023-02-09T07:52:22.632Z,53.00
2023-02-09T07:55:25.877Z,56.50
2023-02-09T07:58:30.750Z,58.40
2023-02-09T08:01:34.139Z,55.80
2023-02-09T08:04:37.475Z,56.00
2023-02-09T08:07:41.509Z,57.40
2023-02-09T08:10:45.050Z,55.40
2023-02-09T08:13:52.154Z,53.00
2023-02-09T08:17:19.212Z,53.00
2023-02-09T08:20:26.608Z,51.00
2023-02-09T08:23:33.354Z,50.00
2023-02-09T08:26:37.221Z,48.20
2023-02-09T08:29:42.296Z,48.60
2023-02-09T08:32:45.600Z,48.20
2023-02-09T08:35:52.364Z,44.00
2023-02-09T08:38:55.682Z,44.60
2023-02-09T08:41:58.926Z,44.80
2023-02-09T08:45:03.671Z,44.00
2023-02-09T08:48:09.406Z,45.25
2023-02-09T08:51:14.439Z,44.60
2023-02-09T08:54:17.713Z,45.60
2023-02-09T08:57:20.975Z,44.40
2023-02-09T09:00:25.757Z,43.00
2023-02-09T09:03:31.916Z,44.00
2023-02-09T09:06:35.345Z,45.00
2023-02-09T09:09:38.649Z,45.00
2023-02-09T09:12:41.898Z,44.00
2023-02-09T09:15:47.270Z,44.00
2023-02-09T09:18:51.018Z,41.60
2023-02-09T09:21:54.284Z,44.25
2023-02-09T09:24:57.502Z,43.40
2023-02-09T09:28:00.889Z,43.00
2023-02-09T09:31:10.993Z,41.00
2023-02-09T09:34:14.287Z,40.00
2023-02-09T09:37:17.497Z,41.00
2023-02-09T09:40:24.643Z,43.00
2023-02-09T09:43:34.755Z,42.50
2023-02-09T09:46:43.000Z,34.75
2023-02-09T09:49:47.030Z,35.00
2023-02-09T09:52:53.613Z,40.40
2023-02-09T09:56:09.302Z,41.00
2023-02-09T09:59:18.153Z,45.00
2023-02-09T10:02:29.528Z,50.60
2023-02-09T10:05:40.177Z,46.00
2023-02-09T10:08:46.729Z,51.00
2023-02-09T10:11:54.867Z,50.60
2023-02-09T10:14:58.146Z,50.00
2023-02-09T10:18:03.401Z,48.00
2023-02-09T10:21:08.490Z,50.00
2023-02-09T10:24:14.599Z,49.00
2023-02-09T10:27:27.551Z,43.40
2023-02-09T10:30:31.076Z,42.00
2023-02-09T10:33:44.086Z,44.00
2023-02-09T10:36:51.591Z,40.00
2023-02-09T10:40:09.192Z,36.00
2023-02-09T10:43:23.420Z,35.00
2023-02-09T10:46:26.973Z,27.00
2023-02-09T10:49:36.147Z,27.00
2023-02-09T10:52:45.399Z,22.00
2023-02-09T10:55:48.806Z,22.00
2023-02-09T10:58:54.314Z,20.75
2023-02-09T11:02:00.122Z,21.00
2023-02-09T11:05:25.816Z,19.60
2023-02-09T11:08:40.803Z,20.00
2023-02-09T11:11:46.246Z,21.00
2023-02-09T11:14:49.942Z,20.60
2023-02-09T11:17:59.205Z,19.20
2023-02-09T11:21:11.615Z,18.00
2023-02-09T11:24:26.311Z,20.00
2023-02-09T11:27:49.242Z,21.00
2023-02-09T11:31:13.771Z,19.00
2023-02-09T11:34:34.609Z,20.40
2023-02-09T11:37:47.009Z,18.50
2023-02-09T11:40:54.116Z,20.00
2023-02-09T11:44:01.948Z,18.40
2023-02-09T11:47:08.155Z,19.00
2023-02-09T11:50:16.582Z,18.00
2023-02-09T11:53:29.932Z,17.00
2023-02-09T11:56:37.743Z,17.20
2023-02-09T11:59:46.774Z,16.25
2023-02-09T12:02:59.423Z,16.75
2023-02-09T12:06:03.587Z,14.40
2023-02-09T12:09:21.885Z,16.75
2023-02-09T12:12:30.244Z,15.00
2023-02-09T12:15:42.837Z,17.00
2023-02-09T12:18:47.538Z,15.00
2023-02-09T12:21:50.950Z,16.00
2023-02-09T12:25:18.861Z,17.00
2023-02-09T12:28:46.326Z,15.50
2023-02-09T12:32:24.559Z,19.00
2023-02-09T12:35:30.031Z,16.00
2023-02-09T12:38:55.452Z,18.00
2023-02-09T12:42:28.137Z,18.20
2023-02-09T12:45:35.343Z,20.00
2023-02-09T12:48:49.107Z,19.00
2023-02-09T12:52:13.860Z,18.50
2023-02-09T12:55:21.329Z,19.00
2023-02-09T12:58:40.753Z,17.75
2023-02-09T13:02:12.493Z,19.60
2023-02-09T13:05:18.952Z,19.00
2023-02-09T13:08:38.809Z,21.00
2023-02-09T13:11:49.333Z,22.40
2023-02-09T13:14:53.933Z,22.00
2023-02-09T13:18:08.089Z,19.00
2023-02-09T13:21:21.819Z,18.00
2023-02-09T13:24:34.071Z,14.80
2023-02-09T13:27:45.207Z,15.00
2023-02-09T13:30:50.547Z,21.60
2023-02-09T13:33:58.863Z,14.00
2023-02-09T13:37:13.431Z,12.40
2023-02-09T13:40:22.169Z,12.67
2023-02-09T13:43:30.144Z,13.60
2023-02-09T13:46:35.517Z,15.40
2023-02-09T13:49:38.902Z,13.40
2023-02-09T13:52:42.267Z,12.40
2023-02-09T13:55:48.971Z,14.00
2023-02-09T13:58:53.580Z,15.00
2023-02-09T14:01:58.219Z,13.40
2023-02-09T14:05:06.290Z,16.00
2023-02-09T14:08:10.799Z,15.40
2023-02-09T14:11:41.011Z,16.00
2023-02-09T14:15:09.221Z,14.60
2023-02-09T14:18:29.333Z,20.00
2023-02-09T14:21:44.680Z,24.00
2023-02-09T14:24:47.899Z,20.00
2023-02-09T14:27:51.317Z,18.00
2023-02-09T14:30:54.692Z,19.60
2023-02-09T14:33:59.434Z,20.00
2023-02-09T14:37:05.818Z,18.40
2023-02-09T14:40:22.575Z,19.00
2023-02-09T14:43:27.883Z,20.40
2023-02-09T14:46:47.820Z,24.00
2023-02-09T14:49:52.488Z,22.00
2023-02-09T14:53:08.163Z,19.60
2023-02-09T14:56:20.052Z,21.00
2023-02-09T14:59:24.400Z,22.40
2023-02-09T15:02:29.073Z,20.60
2023-02-09T15:05:33.809Z,21.40
2023-02-09T15:08:39.243Z,23.00
2023-02-09T15:11:59.945Z,25.00
2023-02-09T15:15:03.472Z,22.00
2023-02-09T15:18:07.742Z,23.40
2023-02-09T15:21:12.375Z,23.60
2023-02-09T15:24:15.635Z,25.20
2023-02-09T15:27:28.588Z,25.20
2023-02-09T15:30:35.309Z,26.80
2023-02-09T15:33:39.041Z,22.00
2023-02-09T15:36:43.762Z,22.60
2023-02-09T15:39:47.305Z,20.60
2023-02-09T15:43:07.957Z,23.20
2023-02-09T15:46:28.911Z,23.40
2023-02-09T15:49:32.164Z,26.00
2023-02-09T15:52:36.883Z,26.40
2023-02-09T15:55:41.105Z,24.20
2023-02-09T15:58:46.488Z,22.00
2023-02-09T16:01:50.884Z,21.50
2023-02-09T16:04:54.264Z,24.20
2023-02-09T16:08:00.364Z,26.00
2023-02-09T16:11:09.533Z,25.00
2023-02-09T16:14:17.957Z,23.80
2023-02-09T16:17:21.219Z,27.60
2023-02-09T16:20:26.187Z,29.40
2023-02-09T16:23:32.429Z,30.00
2023-02-09T16:26:36.001Z,26.50
2023-02-09T16:29:39.320Z,28.00
2023-02-09T16:32:42.688Z,27.60
2023-02-09T16:35:47.232Z,29.00
2023-02-09T16:38:52.165Z,31.40
2023-02-09T16:41:57.328Z,30.00
2023-02-09T16:45:00.677Z,30.00
2023-02-09T16:48:04.358Z,28.00
2023-02-09T16:51:07.637Z,30.00
2023-02-09T16:54:12.598Z,29.80
2023-02-09T16:57:18.715Z,30.00
2023-02-09T17:00:26.937Z,32.00
2023-02-09T17:03:34.842Z,31.40
2023-02-09T17:06:38.184Z,31.00
2023-02-09T17:09:42.973Z,29.50
2023-02-09T17:12:46.701Z,30.00
2023-02-09T17:15:52.694Z,31.00
2023-02-09T17:19:00.662Z,32.00
2023-02-09T17:22:04.142Z,32.00
2023-02-09T17:25:15.611Z,32.80
2023-02-09T17:28:19.424Z,32.00
2023-02-09T17:31:26.240Z,32.00
2023-02-09T17:34:30.154Z,33.00
2023-02-09T17:37:33.396Z,33.40
2023-02-09T17:40:38.117Z,30.60
2023-02-09T17:43:41.422Z,33.60
2023-02-09T17:46:44.831Z,34.40
2023-02-09T17:49:48.451Z,33.00
2023-02-09T17:52:52.942Z,34.00
2023-02-09T17:55:57.552Z,38.00
2023-02-09T17:59:03.188Z,34.00
2023-02-09T18:02:14.780Z,36.00
2023-02-09T18:05:21.149Z,37.50
2023-02-09T18:08:24.607Z,36.75
2023-02-09T18:11:41.829Z,32.75
2023-02-09T18:14:45.092Z,33.50
2023-02-09T18:17:48.424Z,32.00
2023-02-09T18:20:51.631Z,33.40
2023-02-09T18:23:55.038Z,32.00
2023-02-09T18:27:00.265Z,34.25
2023-02-09T18:30:03.565Z,34.00
2023-02-09T18:33:08.665Z,33.20
2023-02-09T18:36:14.617Z,35.00
2023-02-09T18:39:18.458Z,35.80
2023-02-09T18:42:23.108Z,37.00
2023-02-09T18:45:28.696Z,36.40
2023-02-09T18:48:31.993Z,36.00
2023-02-09T18:51:35.173Z,35.80
2023-02-09T18:54:38.448Z,38.40
2023-02-09T18:57:43.230Z,38.80
2023-02-09T19:00:46.640Z,40.00
2023-02-09T19:03:50.739Z,39.20
2023-02-09T19:06:54.131Z,40.00
2023-02-09T19:09:57.483Z,40.00
2023-02-09T19:13:03.987Z,38.00
2023-02-09T19:16:11.514Z,38.25
2023-02-09T19:19:16.257Z,37.00
2023-02-09T19:22:21.779Z,38.00
2023-02-09T19:25:27.382Z,39.00
2023-02-09T19:28:32.616Z,39.00
2023-02-09T19:31:36.424Z,39.00
2023-02-09T19:34:42.936Z,41.00
2023-02-09T19:37:46.241Z,41.67
2023-02-09T19:40:56.608Z,40.40
2023-02-09T19:44:07.100Z,39.60
2023-02-09T19:47:10.347Z,41.40
2023-02-09T19:50:15.486Z,39.00
2023-02-09T19:53:18.816Z,40.60
2023-02-09T19:56:23.519Z,39.40
2023-02-09T19:59:28.391Z,38.40
2023-02-09T20:02:31.656Z,39.00
2023-02-09T20:05:34.897Z,39.00
2023-02-09T20:08:39.395Z,40.00
2023-02-09T20:11:42.676Z,37.80
2023-02-09T20:14:47.351Z,36.00
2023-02-09T20:17:50.641Z,35.60
2023-02-09T20:20:53.884Z,36.00
2023-02-09T20:23:58.095Z,36.75
2023-02-09T20:27:01.667Z,36.60
2023-02-09T20:30:08.092Z,35.40
2023-02-09T20:33:11.396Z,36.00
2023-02-09T20:36:15.120Z,35.00
2023-02-09T20:39:18.944Z,35.00
2023-02-09T20:42:39.847Z,35.00
2023-02-09T20:46:02.019Z,35.60
2023-02-09T20:49:05.420Z,35.00
2023-02-09T20:52:09.509Z,36.20
2023-02-09T20:55:12.789Z,36.00
2023-02-09T20:58:16.200Z,36.50
2023-02-09T21:01:23.345Z,38.40
2023-02-09T21:04:27.209Z,37.60
2023-02-09T21:07:30.451Z,39.00
2023-02-09T21:10:35.554Z,39.40
2023-02-09T21:13:41.217Z,41.00
2023-02-09T21:16:46.022Z,38.00
2023-02-09T21:19:49.345Z,39.00
2023-02-09T21:22:52.757Z,43.00
2023-02-09T21:26:02.384Z,39.60
2023-02-09T21:29:05.649Z,36.80
2023-02-09T21:32:12.170Z,38.00
2023-02-09T21:35:16.531Z,37.40
2023-02-09T21:38:20.201Z,37.00
2023-02-09T21:41:42.728Z,39.00
2023-02-09T21:44:46.074Z,42.00
2023-02-09T21:47:50.882Z,42.00
2023-02-09T21:50:54.594Z,37.00
2023-02-09T21:53:58.886Z,40.60
2023-02-09T21:57:03.158Z,43.00
2023-02-09T22:00:09.090Z,41.00
2023-02-09T22:03:13.805Z,42.00
2023-02-09T22:06:17.678Z,45.40
2023-02-09T22:09:23.127Z,45.00
2023-02-09T22:12:26.404Z,46.00
2023-02-09T22:15:29.602Z,44.40
2023-02-09T22:18:34.663Z,46.00
2023-02-09T22:21:37.927Z,46.80
2023-02-09T22:24:41.228Z,43.80
2023-02-09T22:27:44.402Z,47.00
2023-02-09T22:30:48.030Z,43.80
2023-02-09T22:33:55.099Z,46.00
2023-02-09T22:36:59.045Z,46.00
2023-02-09T22:40:02.311Z,47.00
2023-02-09T22:43:05.622Z,44.00
2023-02-09T22:46:08.945Z,45.00
2023-02-09T22:49:18.526Z,43.40
2023-02-09T22:52:21.815Z,44.50
2023-02-09T22:55:25.114Z,43.00
2023-02-09T22:58:28.392Z,42.00
2023-02-09T23:01:32.798Z,37.20
2023-02-09T23:04:37.876Z,40.00
2023-02-09T23:07:41.839Z,41.00
2023-02-09T23:10:45.231Z,38.00
2023-02-09T23:13:52.830Z,41.25
2023-02-09T23:16:59.067Z,39.20
2023-02-09T23:20:03.663Z,40.00
2023-02-09T23:23:09.713Z,39.00
2023-02-09T23:26:13.601Z,38.00
2023-02-09T23:29:18.365Z,39.00
2023-02-09T23:32:22.112Z,35.80
2023-02-09T23:35:26.926Z,38.75
2023-02-09T23:38:30.400Z,36.00
2023-02-09T23:41:34.674Z,35.00
2023-02-09T23:44:38.013Z,36.00
2023-02-09T23:47:41.322Z,38.80
2023-02-09T23:50:46.101Z,35.00
2023-02-09T23:53:49.735Z,37.00
2023-02-09T23:56:53.777Z,39.00
2023-02-09T23:59:57.019Z,38.00
